Terminal Aerodrome Forecast
Issued by NWS

Home | Current Version | Previous Version | Text Only | Print | Product List | Glossary On
Versions: 1 2 3 4 5 6 7 8 9 10 11 12 13
000
FTUS46 KSEW 152300
TAFBFI
TAF
KBFI 152320Z 1600/1624 33005KT P6SM FEW250
     FM160300 VRB03KT P6SM SCT250
     FM161400 15003KT P6SM SCT007 BKN150
     FM161700 18003KT P6SM BKN150
     FM161900 18005KT P6SM SCT100=

USA.gov is the U.S. government's official web portal to all federal, state and local government web resources and services.